createdAt,value
2019-02-14T00:00:48.354Z,14.83
2019-02-14T00:03:16.598Z,13.30
2019-02-14T00:05:44.907Z,12.83
2019-02-14T00:08:13.557Z,14.90
2019-02-14T00:10:42.223Z,14.03
2019-02-14T00:13:10.727Z,15.33
2019-02-14T00:15:39.024Z,17.13
2019-02-14T00:18:07.586Z,13.27
2019-02-14T00:20:35.830Z,14.60
2019-02-14T00:23:04.112Z,13.40
2019-02-14T00:25:32.369Z,17.80
2019-02-14T00:28:00.969Z,14.00
2019-02-14T00:30:29.247Z,19.03
2019-02-14T00:32:57.481Z,12.10
2019-02-14T00:35:25.750Z,13.77
2019-02-14T00:37:54.072Z,12.90
2019-02-14T00:40:22.358Z,14.63
2019-02-14T00:42:50.933Z,17.73
2019-02-14T00:45:19.251Z,15.77
2019-02-14T00:47:47.556Z,14.43
2019-02-14T00:50:16.175Z,19.80
2019-02-14T00:52:45.426Z,18.57
2019-02-14T00:55:14.065Z,16.57
2019-02-14T00:57:42.330Z,17.43
2019-02-14T01:00:11.782Z,21.13
2019-02-14T01:02:40.061Z,19.03
2019-02-14T01:05:08.706Z,16.97
2019-02-14T01:07:37.393Z,15.00
2019-02-14T01:10:06.293Z,19.97
2019-02-14T01:12:34.553Z,18.77
2019-02-14T01:15:02.808Z,16.37
2019-02-14T01:17:31.101Z,19.67
2019-02-14T01:19:59.694Z,16.03
2019-02-14T01:22:27.973Z,20.13
2019-02-14T01:24:56.542Z,17.53
2019-02-14T01:27:25.131Z,25.53
2019-02-14T01:29:53.713Z,17.47
2019-02-14T01:32:22.397Z,16.17
2019-02-14T01:34:50.651Z,16.90
2019-02-14T01:37:18.930Z,16.03
2019-02-14T01:39:47.251Z,17.13
2019-02-14T01:42:15.540Z,18.07
2019-02-14T01:44:43.799Z,15.93
2019-02-14T01:47:12.037Z,17.27
2019-02-14T01:49:40.313Z,16.63
2019-02-14T01:52:08.925Z,15.77
2019-02-14T01:54:37.189Z,15.57
2019-02-14T01:57:05.491Z,16.27
2019-02-14T01:59:33.756Z,23.33
2019-02-14T02:02:02.022Z,16.33
2019-02-14T02:04:30.285Z,19.70
2019-02-14T02:06:58.880Z,20.40
2019-02-14T02:09:27.151Z,17.40
2019-02-14T02:11:55.417Z,15.70
2019-02-14T02:14:23.725Z,16.93
2019-02-14T02:16:52.413Z,17.17
2019-02-14T02:19:20.738Z,15.80
2019-02-14T02:21:48.981Z,16.73
2019-02-14T02:24:17.253Z,14.37
2019-02-14T02:26:48.711Z,17.27
2019-02-14T02:29:17.286Z,13.97
2019-02-14T02:31:45.601Z,15.30
2019-02-14T02:34:13.869Z,15.30
2019-02-14T02:36:42.113Z,14.50
2019-02-14T02:39:10.353Z,15.63
2019-02-14T02:41:38.626Z,13.50
2019-02-14T02:44:08.929Z,19.40
2019-02-14T02:46:37.133Z,18.27
2019-02-14T02:49:05.391Z,12.53
2019-02-14T02:51:33.990Z,23.10
2019-02-14T02:54:02.300Z,16.00
2019-02-14T02:56:30.613Z,15.30
2019-02-14T02:58:58.865Z,15.60
2019-02-14T03:01:27.132Z,17.57
2019-02-14T03:03:55.677Z,19.43
2019-02-14T03:06:24.202Z,15.20
2019-02-14T03:08:52.449Z,14.93
2019-02-14T03:11:20.725Z,13.90
2019-02-14T03:13:49.303Z,19.13
2019-02-14T03:16:17.597Z,15.10
2019-02-14T03:18:45.847Z,21.10
2019-02-14T03:21:14.426Z,22.83
2019-02-14T03:23:43.026Z,16.63
2019-02-14T03:26:11.619Z,19.10
2019-02-14T03:28:39.934Z,20.73
2019-02-14T03:31:08.245Z,15.03
2019-02-14T03:33:36.548Z,16.13
2019-02-14T03:36:05.108Z,16.40
2019-02-14T03:38:33.387Z,16.47
2019-02-14T03:41:01.676Z,18.43
2019-02-14T03:43:29.918Z,16.20
2019-02-14T03:45:58.203Z,15.00
2019-02-14T03:48:26.445Z,16.53
2019-02-14T03:50:54.718Z,18.03
2019-02-14T03:53:22.969Z,18.30
2019-02-14T03:55:51.227Z,16.63
2019-02-14T03:58:19.477Z,20.83
2019-02-14T04:00:48.690Z,15.33
2019-02-14T04:03:17.283Z,16.33
2019-02-14T04:05:45.559Z,19.70
2019-02-14T04:08:14.137Z,16.40
2019-02-14T04:10:42.412Z,17.63
2019-02-14T04:13:10.659Z,15.73
2019-02-14T04:15:39.031Z,20.93
2019-02-14T04:18:07.361Z,13.80
2019-02-14T04:20:35.642Z,16.27
2019-02-14T04:23:04.205Z,17.37
2019-02-14T04:25:32.529Z,16.50
2019-02-14T04:28:01.910Z,20.77
2019-02-14T04:30:30.325Z,18.20
2019-02-14T04:32:58.603Z,17.40
2019-02-14T04:35:27.231Z,15.23
2019-02-14T04:37:55.517Z,17.23
2019-02-14T04:40:23.776Z,19.50
2019-02-14T04:42:52.453Z,18.83
2019-02-14T04:45:21.064Z,14.93
2019-02-14T04:47:49.336Z,19.30
2019-02-14T04:50:17.598Z,19.03
2019-02-14T04:52:45.858Z,20.27
2019-02-14T04:55:14.465Z,19.13
2019-02-14T04:57:42.738Z,20.57
2019-02-14T05:00:16.704Z,17.27
2019-02-14T05:02:44.969Z,16.77
2019-02-14T05:05:13.226Z,15.13
2019-02-14T05:07:41.562Z,15.57
2019-02-14T05:10:11.147Z,17.33
2019-02-14T05:12:39.766Z,14.20
2019-02-14T05:15:09.513Z,15.27
2019-02-14T05:17:37.787Z,17.23
2019-02-14T05:20:09.173Z,15.70
2019-02-14T05:22:37.710Z,18.60
2019-02-14T05:25:07.686Z,17.57
2019-02-14T05:27:35.953Z,17.57
2019-02-14T05:30:07.116Z,17.50
2019-02-14T05:32:35.407Z,16.80
2019-02-14T05:35:03.936Z,21.97
2019-02-14T05:37:32.262Z,17.33
2019-02-14T05:40:00.523Z,17.47
2019-02-14T05:42:28.931Z,20.50
2019-02-14T05:44:57.194Z,18.33
2019-02-14T05:47:25.476Z,17.23
2019-02-14T05:49:53.792Z,16.07
2019-02-14T05:52:22.448Z,16.77
2019-02-14T05:54:51.093Z,22.07
2019-02-14T05:57:19.379Z,19.57
2019-02-14T05:59:47.675Z,18.13
2019-02-14T06:02:17.899Z,18.00
2019-02-14T06:04:46.173Z,19.30
2019-02-14T06:07:14.439Z,20.83
2019-02-14T06:09:42.704Z,16.50
2019-02-14T06:12:11.317Z,18.00
2019-02-14T06:14:39.625Z,16.13
2019-02-14T06:17:07.874Z,16.37
2019-02-14T06:19:36.157Z,16.90
2019-02-14T06:22:04.421Z,19.57
2019-02-14T06:24:32.687Z,15.50
2019-02-14T06:27:00.957Z,16.80
2019-02-14T06:29:29.534Z,14.00
2019-02-14T06:31:57.803Z,16.07
2019-02-14T06:34:26.145Z,19.20
2019-02-14T06:36:54.403Z,14.13
2019-02-14T06:39:22.773Z,15.60
2019-02-14T06:41:51.501Z,14.70
2019-02-14T06:44:19.816Z,19.57
2019-02-14T06:46:48.485Z,20.07
2019-02-14T06:49:16.774Z,19.83
2019-02-14T06:51:45.375Z,19.07
2019-02-14T06:54:13.945Z,18.47
2019-02-14T06:56:42.195Z,23.20
2019-02-14T06:59:10.557Z,21.90
2019-02-14T07:01:39.163Z,18.57
2019-02-14T07:04:07.425Z,17.47
2019-02-14T07:06:35.678Z,16.53
2019-02-14T07:09:05.217Z,16.87
2019-02-14T07:11:33.537Z,20.80
2019-02-14T07:14:02.294Z,17.67
2019-02-14T07:16:30.871Z,15.63
2019-02-14T07:18:59.492Z,18.03
2019-02-14T07:21:27.725Z,18.97
2019-02-14T07:23:56.007Z,15.93
2019-02-14T07:26:24.575Z,17.03
2019-02-14T07:28:52.943Z,19.13
2019-02-14T07:31:21.190Z,16.80
2019-02-14T07:33:49.461Z,15.30
2019-02-14T07:36:17.709Z,22.37
2019-02-14T07:38:46.255Z,17.40
2019-02-14T07:41:17.928Z,18.87
2019-02-14T07:43:46.469Z,21.00
2019-02-14T07:46:22.368Z,19.03
2019-02-14T07:48:44.742Z,17.23
2019-02-14T07:51:13.060Z,21.70
2019-02-14T07:53:41.342Z,20.57
2019-02-14T07:56:09.580Z,15.97
2019-02-14T07:58:38.132Z,15.97
2019-02-14T08:01:06.689Z,17.23
2019-02-14T08:03:35.306Z,17.80
2019-02-14T08:06:03.541Z,15.93
2019-02-14T08:08:32.098Z,15.07
2019-02-14T08:11:00.625Z,17.07
2019-02-14T08:13:28.897Z,18.57
2019-02-14T08:15:57.136Z,23.33
2019-02-14T08:18:25.410Z,18.37
2019-02-14T08:20:53.661Z,18.87
2019-02-14T08:23:21.920Z,24.13
2019-02-14T08:25:50.169Z,19.90
2019-02-14T08:28:18.803Z,22.67
2019-02-14T08:30:49.245Z,23.17
2019-02-14T08:33:17.500Z,25.27
2019-02-14T08:35:45.766Z,17.77
2019-02-14T08:38:14.038Z,25.27
2019-02-14T08:40:42.323Z,19.63
2019-02-14T08:43:10.571Z,18.00
2019-02-14T08:45:38.834Z,16.30
2019-02-14T08:48:07.082Z,16.23
2019-02-14T08:50:35.693Z,16.17
2019-02-14T08:53:03.945Z,18.43
2019-02-14T08:55:32.469Z,14.27
2019-02-14T08:58:00.729Z,17.53
2019-02-14T09:00:29.069Z,20.10
2019-02-14T09:02:57.319Z,19.80
2019-02-14T09:05:25.609Z,19.17
2019-02-14T09:07:55.182Z,31.93
2019-02-14T09:10:23.979Z,20.93
2019-02-14T09:12:52.551Z,40.93
2019-02-14T09:15:20.832Z,29.23
2019-02-14T09:17:49.398Z,33.17
2019-02-14T09:20:19.335Z,25.50
2019-02-14T09:22:47.569Z,23.33
2019-02-14T09:25:16.175Z,21.27
2019-02-14T09:27:45.726Z,32.40
2019-02-14T09:30:15.708Z,26.47
2019-02-14T09:32:43.957Z,25.60
2019-02-14T09:35:12.237Z,23.33
2019-02-14T09:37:40.490Z,19.00
2019-02-14T09:40:16.939Z,17.47
2019-02-14T09:42:45.291Z,15.07
2019-02-14T09:45:14.349Z,18.47
2019-02-14T09:47:42.883Z,21.47
2019-02-14T09:50:12.671Z,18.33
2019-02-14T09:52:41.511Z,18.37
2019-02-14T09:55:12.730Z,20.10
2019-02-14T09:57:41.321Z,21.73
2019-02-14T10:00:17.226Z,19.67
2019-02-14T10:02:45.550Z,21.83
2019-02-14T10:05:14.737Z,20.60
2019-02-14T10:07:43.125Z,19.53
2019-02-14T10:10:14.458Z,20.20
2019-02-14T10:12:42.764Z,21.90
2019-02-14T10:15:11.317Z,18.23
2019-02-14T10:17:39.594Z,17.90
2019-02-14T10:20:11.231Z,17.83
2019-02-14T10:22:39.482Z,20.93
2019-02-14T10:25:08.676Z,17.17
2019-02-14T10:27:36.925Z,20.60
2019-02-14T10:30:11.346Z,27.70
2019-02-14T10:32:40.077Z,23.13
2019-02-14T10:35:08.658Z,20.80
2019-02-14T10:37:37.236Z,19.30
2019-02-14T10:40:08.901Z,23.13
2019-02-14T10:42:37.480Z,20.57
2019-02-14T10:45:08.846Z,19.67
2019-02-14T10:47:37.416Z,20.93
2019-02-14T10:50:07.538Z,17.60
2019-02-14T10:52:36.119Z,24.93
2019-02-14T10:55:07.031Z,21.45
2019-02-14T10:57:35.297Z,22.63
2019-02-14T11:00:06.839Z,21.30
2019-02-14T11:02:35.102Z,25.50
2019-02-14T11:05:03.399Z,24.93
2019-02-14T11:07:31.764Z,23.10
2019-02-14T11:09:59.997Z,20.97
2019-02-14T11:12:28.682Z,21.50
2019-02-14T11:14:56.928Z,18.90
2019-02-14T11:17:25.207Z,20.40
2019-02-14T11:19:53.460Z,24.77
2019-02-14T11:22:21.724Z,27.23
2019-02-14T11:24:49.992Z,21.93
2019-02-14T11:27:18.257Z,24.03
2019-02-14T11:29:46.521Z,20.83
2019-02-14T11:32:15.186Z,21.20
2019-02-14T11:34:43.453Z,19.57
2019-02-14T11:37:11.730Z,25.60
2019-02-14T11:39:39.977Z,25.13
2019-02-14T11:42:08.273Z,27.43
2019-02-14T11:44:39.829Z,23.03
2019-02-14T11:47:07.837Z,25.70
2019-02-14T11:49:36.378Z,27.40
2019-02-14T11:52:04.978Z,26.20
2019-02-14T11:54:33.244Z,29.90
2019-02-14T11:57:01.535Z,25.87
2019-02-14T11:59:31.444Z,24.57
2019-02-14T12:02:00.045Z,21.63
2019-02-14T12:04:28.300Z,26.73
2019-02-14T12:06:57.021Z,23.63
2019-02-14T12:09:25.588Z,24.77
2019-02-14T12:11:53.865Z,20.20
2019-02-14T12:14:22.121Z,23.13
2019-02-14T12:16:50.392Z,24.80
2019-02-14T12:19:18.651Z,23.70
2019-02-14T12:21:46.921Z,25.70
2019-02-14T12:24:15.180Z,25.53
2019-02-14T12:26:43.462Z,28.13
2019-02-14T12:29:11.726Z,26.33
2019-02-14T12:31:39.997Z,27.67
2019-02-14T12:34:08.250Z,23.53
2019-02-14T12:36:36.525Z,25.83
2019-02-14T12:39:09.889Z,24.40
2019-02-14T12:41:35.848Z,24.23
2019-02-14T12:44:04.177Z,25.20
2019-02-14T12:46:32.788Z,19.17
2019-02-14T12:49:01.021Z,24.67
2019-02-14T12:51:29.653Z,25.63
2019-02-14T12:53:58.435Z,23.23
2019-02-14T12:56:26.702Z,23.00
2019-02-14T12:58:55.289Z,25.70
2019-02-14T13:01:23.588Z,30.00
2019-02-14T13:03:51.835Z,25.60
2019-02-14T13:06:20.423Z,24.07
2019-02-14T13:08:48.737Z,25.57
2019-02-14T13:11:17.018Z,33.23
2019-02-14T13:13:49.699Z,22.70
2019-02-14T13:16:15.293Z,21.07
2019-02-14T13:18:43.850Z,23.63
2019-02-14T13:21:12.150Z,28.30
2019-02-14T13:23:40.408Z,23.60
2019-02-14T13:26:09.022Z,25.60
2019-02-14T13:28:37.274Z,25.83
2019-02-14T13:31:05.532Z,34.47
2019-02-14T13:33:33.791Z,27.50
2019-02-14T13:36:02.078Z,21.80
2019-02-14T13:38:30.324Z,22.43
2019-02-14T13:40:59.039Z,22.20
2019-02-14T13:43:27.324Z,24.67
2019-02-14T13:45:55.918Z,25.23
2019-02-14T13:48:24.164Z,22.87
2019-02-14T13:50:55.872Z,25.77
2019-02-14T13:53:24.138Z,27.33
2019-02-14T13:55:52.443Z,24.17
2019-02-14T13:58:20.688Z,23.60
2019-02-14T14:00:48.929Z,25.20
2019-02-14T14:03:17.230Z,24.27
2019-02-14T14:05:45.479Z,27.13
2019-02-14T14:08:14.090Z,24.20
2019-02-14T14:10:42.342Z,24.37
2019-02-14T14:13:10.945Z,25.97
2019-02-14T14:15:39.198Z,30.10
2019-02-14T14:18:07.475Z,25.27
2019-02-14T14:20:35.754Z,31.00
2019-02-14T14:23:04.029Z,23.93
2019-02-14T14:25:32.641Z,27.53
2019-02-14T14:28:00.932Z,27.77
2019-02-14T14:30:29.502Z,27.17
2019-02-14T14:32:57.782Z,25.80
2019-02-14T14:35:26.020Z,21.63
2019-02-14T14:37:54.294Z,30.80
2019-02-14T14:40:22.559Z,27.67
2019-02-14T14:42:52.525Z,25.03
2019-02-14T14:45:28.478Z,23.47
2019-02-14T14:47:57.985Z,23.57
2019-02-14T14:50:26.567Z,27.03
2019-02-14T14:52:54.874Z,27.90
2019-02-14T14:55:23.109Z,23.97
2019-02-14T14:57:51.400Z,25.23
2019-02-14T15:00:19.642Z,29.37
2019-02-14T15:02:48.189Z,25.63
2019-02-14T15:05:16.443Z,23.43
2019-02-14T15:07:44.996Z,28.13
2019-02-14T15:10:13.590Z,28.97
2019-02-14T15:12:41.949Z,29.33
2019-02-14T15:15:10.566Z,25.93
2019-02-14T15:17:38.932Z,25.90
2019-02-14T15:20:09.577Z,30.03
2019-02-14T15:22:37.947Z,27.93
2019-02-14T15:25:06.847Z,25.77
2019-02-14T15:27:35.419Z,26.43
2019-02-14T15:30:04.970Z,25.53
2019-02-14T15:32:33.319Z,26.73
2019-02-14T15:35:01.571Z,25.03
2019-02-14T15:37:29.859Z,24.87
2019-02-14T15:40:08.723Z,26.37
2019-02-14T15:42:28.475Z,23.97
2019-02-14T15:44:56.734Z,27.23
2019-02-14T15:47:25.103Z,27.00
2019-02-14T15:49:53.402Z,25.93
2019-02-14T15:52:21.957Z,20.93
2019-02-14T15:54:50.205Z,24.00
2019-02-14T15:57:20.357Z,24.93
2019-02-14T15:59:48.464Z,23.77
2019-02-14T16:02:16.756Z,26.93
2019-02-14T16:04:45.992Z,26.73
2019-02-14T16:07:15.373Z,24.90
2019-02-14T16:09:44.493Z,25.37
2019-02-14T16:12:12.997Z,27.47
2019-02-14T16:14:42.754Z,25.67
2019-02-14T16:17:13.566Z,26.53
2019-02-14T16:19:41.328Z,26.17
2019-02-14T16:22:09.605Z,22.60
2019-02-14T16:24:39.195Z,25.70
2019-02-14T16:27:07.883Z,25.93
2019-02-14T16:29:36.291Z,25.53
2019-02-14T16:32:04.826Z,31.27
2019-02-14T16:34:33.113Z,27.60
2019-02-14T16:37:01.355Z,30.63
2019-02-14T16:39:29.665Z,32.23
2019-02-14T16:41:57.985Z,30.77
2019-02-14T16:44:26.274Z,32.07
2019-02-14T16:46:54.595Z,28.33
2019-02-14T16:49:22.880Z,26.93
2019-02-14T16:51:51.130Z,32.37
2019-02-14T16:54:19.436Z,32.10
2019-02-14T16:56:48.003Z,30.37
2019-02-14T16:59:16.615Z,35.47
2019-02-14T17:01:44.946Z,28.50
2019-02-14T17:04:13.277Z,35.27
2019-02-14T17:06:41.814Z,31.07
2019-02-14T17:09:10.142Z,29.40
2019-02-14T17:11:38.673Z,30.13
2019-02-14T17:14:06.964Z,31.37
2019-02-14T17:16:35.278Z,29.20
2019-02-14T17:19:03.643Z,35.80
2019-02-14T17:21:31.992Z,30.13
2019-02-14T17:24:00.581Z,31.87
2019-02-14T17:26:28.873Z,35.10
2019-02-14T17:28:57.142Z,31.07
2019-02-14T17:31:25.903Z,32.53
2019-02-14T17:33:54.414Z,31.40
2019-02-14T17:36:22.658Z,37.27
2019-02-14T17:38:51.271Z,37.33
2019-02-14T17:41:19.566Z,38.57
2019-02-14T17:43:47.857Z,37.40
2019-02-14T17:46:16.125Z,41.77
2019-02-14T17:48:44.424Z,34.30
2019-02-14T17:51:12.675Z,38.00
2019-02-14T17:53:40.990Z,37.63
2019-02-14T17:56:09.311Z,40.30
2019-02-14T17:58:37.607Z,34.63
2019-02-14T18:01:05.853Z,35.20
2019-02-14T18:03:34.149Z,43.03
2019-02-14T18:06:02.414Z,55.73
2019-02-14T18:08:30.787Z,80.83
2019-02-14T18:10:59.055Z,66.53
2019-02-14T18:13:28.356Z,64.37
2019-02-14T18:15:56.691Z,48.13
2019-02-14T18:18:25.033Z,55.77
2019-02-14T18:20:53.306Z,50.83
2019-02-14T18:23:21.617Z,49.07
2019-02-14T18:25:50.248Z,45.03
2019-02-14T18:28:18.637Z,48.40
2019-02-14T18:30:47.318Z,47.20
2019-02-14T18:33:15.882Z,44.23
2019-02-14T18:35:44.138Z,42.50
2019-02-14T18:38:12.467Z,44.67
2019-02-14T18:40:41.119Z,40.73
2019-02-14T18:43:09.709Z,33.17
2019-02-14T18:45:37.956Z,35.43
2019-02-14T18:48:06.271Z,31.07
2019-02-14T18:50:34.524Z,37.23
2019-02-14T18:53:02.853Z,37.27
2019-02-14T18:55:31.118Z,39.67
2019-02-14T18:57:59.505Z,42.47
2019-02-14T19:00:27.846Z,38.43
2019-02-14T19:02:56.537Z,36.63
2019-02-14T19:05:24.873Z,43.93
2019-02-14T19:07:53.198Z,39.27
2019-02-14T19:10:21.900Z,46.97
2019-02-14T19:12:50.207Z,40.13
2019-02-14T19:15:18.493Z,39.63
2019-02-14T19:17:47.099Z,48.63
2019-02-14T19:20:15.350Z,43.57
2019-02-14T19:22:44.081Z,44.03
2019-02-14T19:25:12.355Z,47.47
2019-02-14T19:27:40.672Z,39.23
2019-02-14T19:30:12.684Z,39.63
2019-02-14T19:32:41.038Z,40.63
2019-02-14T19:35:09.607Z,35.37
2019-02-14T19:37:38.166Z,40.80
2019-02-14T19:40:08.097Z,42.40
2019-02-14T19:42:36.742Z,41.90
2019-02-14T19:45:09.909Z,39.30
2019-02-14T19:47:38.195Z,39.50
2019-02-14T19:50:09.639Z,44.07
2019-02-14T19:52:38.059Z,41.07
2019-02-14T19:55:09.068Z,40.37
2019-02-14T19:57:37.502Z,44.63
2019-02-14T20:00:09.583Z,44.00
2019-02-14T20:02:38.931Z,41.07
2019-02-14T20:05:08.701Z,44.43
2019-02-14T20:07:36.999Z,43.47
2019-02-14T20:10:09.929Z,34.47
2019-02-14T20:12:38.197Z,39.00
2019-02-14T20:15:15.646Z,45.30
2019-02-14T20:17:44.213Z,35.17
2019-02-14T20:20:12.925Z,39.90
2019-02-14T20:22:41.513Z,39.47
2019-02-14T20:25:15.649Z,42.57
2019-02-14T20:27:44.251Z,41.57
2019-02-14T20:30:12.880Z,45.30
2019-02-14T20:35:12.078Z,43.60
2019-02-14T20:37:40.350Z,33.07
2019-02-14T20:40:10.415Z,35.17
2019-02-14T20:42:38.685Z,43.93
2019-02-14T20:45:12.443Z,45.70
2019-02-14T20:47:40.785Z,38.27
2019-02-14T20:50:11.906Z,39.27
2019-02-14T20:52:40.459Z,37.57
2019-02-14T20:55:11.616Z,41.97
2019-02-14T20:57:40.828Z,33.00
2019-02-14T21:00:12.486Z,36.47
2019-02-14T21:02:40.768Z,44.10
2019-02-14T21:05:09.221Z,38.83
2019-02-14T21:07:37.526Z,33.67
2019-02-14T21:10:07.091Z,37.33
2019-02-14T21:12:35.423Z,36.97
2019-02-14T21:15:04.849Z,32.67
2019-02-14T21:17:33.191Z,31.70
2019-02-14T21:20:01.770Z,40.77
2019-02-14T21:22:30.023Z,41.07
2019-02-14T21:24:58.468Z,34.40
2019-02-14T21:27:26.750Z,37.07
2019-02-14T21:29:55.085Z,37.13
2019-02-14T21:32:23.378Z,36.10
2019-02-14T21:34:51.758Z,38.67
2019-02-14T21:37:20.194Z,40.23
2019-02-14T21:39:48.581Z,37.13
2019-02-14T21:42:21.128Z,35.27
2019-02-14T21:44:46.922Z,37.27
2019-02-14T21:47:15.169Z,39.70
2019-02-14T21:49:43.487Z,37.07
2019-02-14T21:52:11.819Z,37.13
2019-02-14T21:54:40.205Z,40.47
2019-02-14T21:57:08.600Z,40.57
2019-02-14T21:59:36.979Z,36.20
2019-02-14T22:02:06.693Z,32.57
2019-02-14T22:04:35.238Z,35.47
2019-02-14T22:07:09.519Z,43.70
2019-02-14T22:09:37.768Z,35.50
2019-02-14T22:12:06.189Z,37.67
2019-02-14T22:14:34.554Z,35.60
2019-02-14T22:17:02.879Z,40.47
2019-02-14T22:19:31.414Z,41.33
2019-02-14T22:22:00.044Z,39.43
2019-02-14T22:24:28.817Z,33.80
2019-02-14T22:26:57.163Z,35.37
2019-02-14T22:29:25.417Z,39.27
2019-02-14T22:31:53.717Z,37.10
2019-02-14T22:34:22.349Z,37.37
2019-02-14T22:36:50.704Z,38.67
2019-02-14T22:39:19.088Z,34.67
2019-02-14T22:41:47.354Z,36.00
2019-02-14T22:44:15.875Z,33.00
2019-02-14T22:46:44.386Z,40.57
2019-02-14T22:49:12.915Z,32.13
2019-02-14T22:51:41.182Z,30.97
2019-02-14T22:54:09.724Z,37.00
2019-02-14T22:56:38.258Z,36.20
2019-02-14T22:59:06.765Z,32.53
2019-02-14T23:01:35.323Z,36.63
2019-02-14T23:04:03.570Z,37.47
2019-02-14T23:06:32.139Z,42.67
2019-02-14T23:09:00.418Z,40.50
2019-02-14T23:11:28.759Z,42.73
2019-02-14T23:13:57.067Z,42.57
2019-02-14T23:16:25.376Z,34.67
2019-02-14T23:18:53.919Z,32.70
2019-02-14T23:21:22.218Z,34.70
2019-02-14T23:23:50.753Z,38.13
2019-02-14T23:26:19.055Z,36.37
2019-02-14T23:28:47.319Z,32.67
2019-02-14T23:31:15.853Z,32.47
2019-02-14T23:33:44.435Z,37.43
2019-02-14T23:36:12.708Z,41.93
2019-02-14T23:38:41.235Z,32.60
2019-02-14T23:41:09.512Z,34.67
2019-02-14T23:43:37.782Z,38.33
2019-02-14T23:46:06.081Z,26.70
2019-02-14T23:48:34.326Z,36.60
2019-02-14T23:51:03.661Z,35.00
2019-02-14T23:53:32.016Z,32.80
2019-02-14T23:56:00.311Z,29.93
2019-02-14T23:58:28.569Z,31.13
